createdAt,value
2019-03-21T00:01:16.462Z,14.40
2019-03-21T00:03:49.601Z,14.03
2019-03-21T00:06:20.984Z,14.83
2019-03-21T00:08:52.359Z,13.72
2019-03-21T00:12:01.879Z,16.60
2019-03-21T00:14:45.291Z,14.73
2019-03-21T00:17:28.705Z,25.62
2019-03-21T00:19:59.987Z,25.92
2019-03-21T00:22:31.309Z,19.45
2019-03-21T00:25:02.759Z,21.10
2019-03-21T00:27:34.015Z,17.85
2019-03-21T00:30:08.536Z,19.82
2019-03-21T00:32:39.959Z,18.07
2019-03-21T00:35:12.053Z,17.82
2019-03-21T00:40:17.175Z,16.30
2019-03-21T00:42:48.915Z,15.18
2019-03-21T00:45:20.325Z,14.73
2019-03-21T00:47:51.792Z,15.50
2019-03-21T00:50:26.206Z,14.40
2019-03-21T00:52:57.666Z,15.72
2019-03-21T00:55:32.228Z,15.45
2019-03-21T00:58:03.583Z,15.15
2019-03-21T01:00:44.318Z,11.15
2019-03-21T01:03:15.648Z,14.83
2019-03-21T01:05:46.976Z,15.40
2019-03-21T01:08:18.312Z,12.35
2019-03-21T01:10:50.718Z,14.70
2019-03-21T01:13:22.759Z,16.73
2019-03-21T01:15:54.280Z,18.02
2019-03-21T01:18:25.744Z,19.87
2019-03-21T01:20:56.922Z,19.62
2019-03-21T01:23:28.303Z,17.48
2019-03-21T01:26:02.994Z,22.37
2019-03-21T01:28:34.212Z,29.63
2019-03-21T01:31:05.605Z,28.50
2019-03-21T01:33:36.958Z,28.57
2019-03-21T01:36:09.423Z,28.25
2019-03-21T01:38:40.834Z,27.80
2019-03-21T01:41:18.248Z,24.47
2019-03-21T01:43:49.632Z,23.62
2019-03-21T01:46:23.326Z,26.45
2019-03-21T01:48:54.648Z,29.00
2019-03-21T01:51:25.990Z,35.50
2019-03-21T01:53:57.322Z,36.03
2019-03-21T01:56:30.053Z,34.50
2019-03-21T01:59:01.512Z,32.40
2019-03-21T02:01:32.857Z,25.85
2019-03-21T02:04:04.259Z,24.77
2019-03-21T02:06:35.614Z,24.45
2019-03-21T02:09:08.473Z,24.47
2019-03-21T02:11:39.847Z,22.58
2019-03-21T02:14:11.194Z,25.00
2019-03-21T02:16:42.552Z,25.85
2019-03-21T02:19:13.828Z,23.67
2019-03-21T02:21:45.134Z,28.73
2019-03-21T02:24:16.554Z,27.77
2019-03-21T02:26:47.863Z,24.55
2019-03-21T02:29:19.283Z,27.82
2019-03-21T02:31:50.794Z,25.48
2019-03-21T02:34:22.331Z,25.05
2019-03-21T02:36:53.648Z,18.87
2019-03-21T02:39:24.954Z,25.75
2019-03-21T02:41:56.379Z,25.15
2019-03-21T02:44:27.733Z,30.50
2019-03-21T02:46:59.097Z,25.32
2019-03-21T02:49:30.365Z,34.70
2019-03-21T02:52:01.761Z,34.43
2019-03-21T02:54:33.008Z,33.92
2019-03-21T02:57:04.381Z,41.30
2019-03-21T02:59:36.696Z,41.28
2019-03-21T03:02:08.031Z,29.82
2019-03-21T03:04:39.351Z,35.33
2019-03-21T03:07:10.685Z,35.60
2019-03-21T03:09:42.052Z,31.33
2019-03-21T03:12:13.385Z,30.57
2019-03-21T03:14:44.646Z,30.68
2019-03-21T03:17:16.041Z,28.27
2019-03-21T03:19:47.433Z,27.62
2019-03-21T03:22:18.757Z,29.23
2019-03-21T03:24:50.094Z,32.42
2019-03-21T03:27:21.430Z,31.00
2019-03-21T03:29:52.822Z,34.60
2019-03-21T03:32:24.081Z,36.63
2019-03-21T03:34:55.469Z,39.75
2019-03-21T03:37:26.775Z,39.67
2019-03-21T03:39:58.004Z,40.15
2019-03-21T03:42:29.371Z,34.95
2019-03-21T03:45:00.628Z,38.60
2019-03-21T03:47:31.934Z,34.90
2019-03-21T03:50:03.348Z,34.40
2019-03-21T03:52:34.735Z,34.25
2019-03-21T03:55:09.106Z,36.83
2019-03-21T03:57:40.524Z,37.67
2019-03-21T04:00:17.744Z,33.13
2019-03-21T04:02:52.806Z,31.70
2019-03-21T04:05:24.223Z,31.75
2019-03-21T04:07:55.572Z,31.12
2019-03-21T04:10:30.041Z,23.65
2019-03-21T04:13:01.367Z,32.03
2019-03-21T04:15:33.748Z,33.00
2019-03-21T04:18:05.188Z,33.75
2019-03-21T04:20:48.339Z,38.17
2019-03-21T04:23:22.322Z,36.33
2019-03-21T04:25:56.918Z,32.03
2019-03-21T04:28:28.322Z,27.75
2019-03-21T04:30:59.728Z,29.65
2019-03-21T04:33:32.272Z,29.52
2019-03-21T04:36:03.546Z,30.55
2019-03-21T04:38:35.039Z,31.00
2019-03-21T04:41:06.401Z,31.27
2019-03-21T04:43:37.710Z,33.38
2019-03-21T04:46:09.104Z,29.60
2019-03-21T04:48:40.500Z,24.85
2019-03-21T04:51:11.859Z,26.27
2019-03-21T04:53:43.198Z,28.40
2019-03-21T04:56:14.640Z,29.70
2019-03-21T04:58:46.035Z,26.65
2019-03-21T05:01:17.374Z,16.73
2019-03-21T05:03:48.835Z,23.20
2019-03-21T05:06:20.247Z,24.02
2019-03-21T05:08:51.575Z,26.12
2019-03-21T05:11:22.944Z,27.00
2019-03-21T05:13:54.453Z,23.18
2019-03-21T05:16:25.915Z,21.77
2019-03-21T05:18:59.729Z,21.82
2019-03-21T05:21:31.141Z,21.73
2019-03-21T05:24:02.427Z,21.30
2019-03-21T05:26:36.024Z,18.62
2019-03-21T05:29:07.364Z,16.35
2019-03-21T05:31:38.718Z,17.37
2019-03-21T05:34:10.111Z,19.02
2019-03-21T05:36:41.397Z,20.70
2019-03-21T05:39:12.749Z,15.93
2019-03-21T05:41:44.109Z,16.15
2019-03-21T05:44:33.534Z,16.55
2019-03-21T05:47:04.884Z,16.15
2019-03-21T05:49:36.288Z,14.25
2019-03-21T05:52:07.754Z,13.58
2019-03-21T05:54:39.216Z,14.07
2019-03-21T05:57:10.585Z,14.30
2019-03-21T05:59:42.178Z,11.10
2019-03-21T06:02:13.466Z,11.63
2019-03-21T06:04:57.227Z,12.82
2019-03-21T06:07:37.605Z,12.10
2019-03-21T06:10:18.137Z,13.93
2019-03-21T06:16:09.077Z,16.57
2019-03-21T06:18:49.850Z,15.10
2019-03-21T06:21:30.164Z,12.45
2019-03-21T06:24:19.693Z,12.20
2019-03-21T06:26:55.131Z,12.20
2019-03-21T06:29:29.419Z,13.38
2019-03-21T06:32:00.756Z,16.57
2019-03-21T06:34:32.166Z,18.48
2019-03-21T06:37:03.533Z,17.62
2019-03-21T06:39:35.011Z,14.40
2019-03-21T06:42:08.211Z,12.35
2019-03-21T06:44:39.592Z,12.40
2019-03-21T06:47:11.138Z,14.18
2019-03-21T06:49:42.698Z,10.23
2019-03-21T06:52:14.039Z,5.80
2019-03-21T06:54:45.309Z,6.97
2019-03-21T06:57:16.652Z,5.30
2019-03-21T06:59:48.067Z,5.15
2019-03-21T07:02:19.490Z,5.67
2019-03-21T07:04:50.903Z,4.90
2019-03-21T07:07:22.342Z,5.40
2019-03-21T07:09:53.877Z,5.10
2019-03-21T07:12:28.400Z,6.03
2019-03-21T07:14:59.727Z,5.55
2019-03-21T07:17:31.685Z,5.95
2019-03-21T07:20:03.455Z,5.28
2019-03-21T07:22:34.765Z,5.00
2019-03-21T07:25:07.915Z,3.27
2019-03-21T07:27:39.305Z,4.22
2019-03-21T07:30:15.063Z,3.72
2019-03-21T07:32:46.424Z,4.42
2019-03-21T07:35:17.794Z,4.53
2019-03-21T07:37:49.176Z,5.30
2019-03-21T07:40:20.537Z,3.70
2019-03-21T07:42:52.053Z,4.67
2019-03-21T07:45:23.377Z,4.42
2019-03-21T07:47:54.791Z,3.95
2019-03-21T07:50:26.980Z,3.60
2019-03-21T07:52:58.370Z,4.67
2019-03-21T07:55:29.835Z,4.33
2019-03-21T07:58:01.095Z,5.35
2019-03-21T08:00:32.424Z,4.60
2019-03-21T08:03:03.774Z,4.15
2019-03-21T08:05:40.193Z,4.42
2019-03-21T08:08:08.169Z,4.67
2019-03-21T08:10:39.459Z,5.97
2019-03-21T08:13:10.811Z,6.30
2019-03-21T08:15:42.105Z,9.10
2019-03-21T08:18:13.562Z,10.90
2019-03-21T08:20:55.575Z,13.05
2019-03-21T08:23:17.879Z,14.40
2019-03-21T08:25:49.346Z,13.75
2019-03-21T08:28:20.793Z,18.82
2019-03-21T08:31:06.944Z,17.37
2019-03-21T08:33:38.296Z,10.63
2019-03-21T08:36:09.696Z,6.42
2019-03-21T08:38:41.079Z,9.83
2019-03-21T08:41:12.449Z,9.85
2019-03-21T08:43:43.895Z,10.48
2019-03-21T08:46:15.207Z,6.62
2019-03-21T08:48:46.638Z,6.33
2019-03-21T08:51:17.926Z,5.70
2019-03-21T08:53:49.308Z,5.70
2019-03-21T08:56:20.726Z,5.37
2019-03-21T08:58:52.076Z,5.45
2019-03-21T09:01:23.347Z,5.80
2019-03-21T09:03:54.616Z,5.80
2019-03-21T09:06:26.020Z,6.50
2019-03-21T09:08:57.456Z,7.00
2019-03-21T09:11:28.831Z,10.03
2019-03-21T09:14:00.193Z,6.50
2019-03-21T09:16:31.546Z,6.37
2019-03-21T09:19:02.879Z,7.87
2019-03-21T09:21:35.836Z,8.00
2019-03-21T09:24:07.183Z,7.50
2019-03-21T09:26:38.508Z,8.50
2019-03-21T09:29:09.915Z,7.20
2019-03-21T09:31:41.232Z,5.62
2019-03-21T09:34:12.663Z,7.72
2019-03-21T09:36:44.069Z,6.72
2019-03-21T09:39:15.246Z,8.55
2019-03-21T09:41:46.597Z,6.60
2019-03-21T09:44:28.530Z,6.60
2019-03-21T09:46:59.774Z,7.53
2019-03-21T09:49:31.148Z,7.65
2019-03-21T09:52:03.581Z,7.05
2019-03-21T09:54:36.069Z,7.20
2019-03-21T09:57:07.491Z,7.20
2019-03-21T09:59:38.836Z,6.87
2019-03-21T10:02:10.193Z,6.42
2019-03-21T10:04:41.505Z,7.17
2019-03-21T10:07:14.268Z,5.97
2019-03-21T10:09:45.621Z,7.47
2019-03-21T10:12:16.972Z,8.55
2019-03-21T10:14:48.387Z,7.17
2019-03-21T10:17:19.812Z,6.65
2019-03-21T10:19:51.073Z,7.47
2019-03-21T10:22:22.311Z,8.35
2019-03-21T10:24:54.248Z,5.87
2019-03-21T10:27:27.111Z,6.65
2019-03-21T10:29:58.561Z,8.03
2019-03-21T10:32:29.995Z,6.10
2019-03-21T10:35:01.256Z,6.85
2019-03-21T10:37:32.644Z,12.37
2019-03-21T10:40:04.590Z,7.85
2019-03-21T10:45:07.607Z,7.33
2019-03-21T10:47:38.852Z,7.28
2019-03-21T10:50:11.886Z,7.60
2019-03-21T10:52:43.223Z,8.05
2019-03-21T10:55:14.559Z,8.08
2019-03-21T10:57:45.892Z,8.40
2019-03-21T11:00:17.217Z,9.45
2019-03-21T11:02:48.548Z,8.58
2019-03-21T11:05:19.991Z,8.15
2019-03-21T11:07:52.914Z,8.13
2019-03-21T11:10:25.739Z,8.10
2019-03-21T11:12:58.048Z,8.78
2019-03-21T11:15:29.453Z,8.23
2019-03-21T11:18:00.808Z,8.50
2019-03-21T11:20:37.124Z,10.70
2019-03-21T11:23:08.596Z,10.23
2019-03-21T11:25:39.948Z,11.15
2019-03-21T11:28:11.335Z,10.40
2019-03-21T11:30:43.409Z,9.08
2019-03-21T11:33:16.105Z,10.25
2019-03-21T11:35:47.538Z,9.98
2019-03-21T11:38:19.103Z,9.30
2019-03-21T11:40:50.368Z,9.28
2019-03-21T11:43:21.751Z,8.88
2019-03-21T11:45:55.199Z,9.83
2019-03-21T11:48:26.382Z,8.55
2019-03-21T11:50:57.703Z,9.18
2019-03-21T11:53:29.014Z,8.70
2019-03-21T11:56:00.281Z,8.65
2019-03-21T11:58:31.798Z,8.73
2019-03-21T12:01:03.026Z,8.13
2019-03-21T12:03:34.391Z,9.23
2019-03-21T12:06:05.711Z,8.88
2019-03-21T12:08:37.122Z,8.65
2019-03-21T12:11:08.291Z,8.70
2019-03-21T12:13:39.694Z,9.40
2019-03-21T12:16:11.130Z,10.15
2019-03-21T12:18:42.540Z,9.95
2019-03-21T12:21:13.930Z,9.23
2019-03-21T12:23:45.452Z,9.18
2019-03-21T12:26:16.861Z,9.70
2019-03-21T12:28:48.194Z,11.10
2019-03-21T12:31:19.650Z,9.83
2019-03-21T12:33:51.177Z,10.20
2019-03-21T12:36:22.596Z,11.38
2019-03-21T12:38:53.989Z,11.43
2019-03-21T12:41:25.330Z,11.15
2019-03-21T12:43:56.544Z,9.83
2019-03-21T12:46:27.855Z,9.83
2019-03-21T12:48:59.238Z,10.13
2019-03-21T12:51:30.579Z,9.10
2019-03-21T12:54:02.389Z,9.00
2019-03-21T12:56:33.634Z,10.70
2019-03-21T12:59:05.023Z,11.12
2019-03-21T13:01:36.305Z,12.43
2019-03-21T13:04:07.741Z,9.60
2019-03-21T13:06:38.945Z,10.00
2019-03-21T13:09:10.265Z,9.25
2019-03-21T13:11:41.667Z,9.80
2019-03-21T13:14:13.108Z,10.85
2019-03-21T13:16:44.523Z,10.72
2019-03-21T13:19:15.945Z,11.78
2019-03-21T13:21:47.379Z,14.50
2019-03-21T13:24:19.679Z,11.78
2019-03-21T13:26:51.073Z,16.27
2019-03-21T13:29:25.001Z,18.30
2019-03-21T13:31:55.495Z,17.50
2019-03-21T13:34:26.900Z,18.82
2019-03-21T13:36:58.281Z,11.95
2019-03-21T13:39:29.567Z,12.73
2019-03-21T13:42:01.097Z,10.88
2019-03-21T13:44:32.424Z,9.25
2019-03-21T13:47:03.718Z,8.90
2019-03-21T13:49:35.053Z,9.98
2019-03-21T13:52:07.658Z,9.48
2019-03-21T13:54:39.040Z,8.90
2019-03-21T13:57:10.416Z,9.43
2019-03-21T13:59:41.733Z,10.13
2019-03-21T14:02:13.148Z,7.70
2019-03-21T14:04:44.544Z,10.58
2019-03-21T14:07:15.993Z,10.78
2019-03-21T14:09:47.328Z,11.57
2019-03-21T14:12:18.837Z,13.30
2019-03-21T14:14:50.029Z,13.20
2019-03-21T14:17:22.405Z,14.23
2019-03-21T14:19:53.865Z,14.87
2019-03-21T14:22:25.267Z,16.02
2019-03-21T14:24:56.608Z,15.63
2019-03-21T14:27:28.019Z,15.23
2019-03-21T14:30:01.530Z,16.25
2019-03-21T14:32:33.744Z,16.10
2019-03-21T14:35:07.264Z,17.75
2019-03-21T14:37:38.560Z,17.37
2019-03-21T14:40:16.488Z,16.75
2019-03-21T14:42:47.912Z,17.65
2019-03-21T14:45:19.211Z,15.70
2019-03-21T14:47:50.569Z,17.55
2019-03-21T14:50:22.459Z,16.25
2019-03-21T14:52:53.679Z,16.60
2019-03-21T14:55:25.083Z,17.37
2019-03-21T14:57:56.737Z,17.50
2019-03-21T15:00:28.134Z,15.45
2019-03-21T15:02:59.427Z,16.35
2019-03-21T15:05:30.670Z,14.25
2019-03-21T15:08:02.135Z,15.20
2019-03-21T15:10:33.651Z,13.93
2019-03-21T15:13:05.100Z,14.80
2019-03-21T15:15:36.370Z,14.68
2019-03-21T15:18:07.737Z,15.68
2019-03-21T15:20:39.061Z,13.18
2019-03-21T15:23:11.491Z,11.70
2019-03-21T15:25:42.911Z,12.45
2019-03-21T15:28:14.315Z,13.58
2019-03-21T15:30:45.754Z,13.78
2019-03-21T15:33:18.029Z,13.32
2019-03-21T15:35:49.498Z,13.40
2019-03-21T15:38:20.945Z,12.68
2019-03-21T15:40:52.400Z,12.23
2019-03-21T15:43:23.646Z,13.38
2019-03-21T15:45:55.111Z,10.10
2019-03-21T15:48:26.363Z,11.80
2019-03-21T15:51:04.226Z,11.12
2019-03-21T15:53:30.506Z,12.33
2019-03-21T15:56:01.882Z,11.53
2019-03-21T15:58:33.256Z,13.03
2019-03-21T16:01:04.635Z,14.50
2019-03-21T16:03:36.024Z,14.65
2019-03-21T16:06:07.398Z,13.70
2019-03-21T16:08:38.659Z,13.38
2019-03-21T16:11:09.967Z,13.05
2019-03-21T16:13:41.279Z,13.55
2019-03-21T16:16:12.559Z,12.65
2019-03-21T16:18:43.916Z,14.95
2019-03-21T16:21:15.310Z,15.45
2019-03-21T16:23:46.660Z,16.40
2019-03-21T16:26:17.872Z,16.00
2019-03-21T16:28:49.211Z,15.60
2019-03-21T16:31:20.510Z,16.10
2019-03-21T16:33:51.859Z,16.50
2019-03-21T16:36:23.357Z,16.62
2019-03-21T16:38:54.807Z,15.48
2019-03-21T16:41:26.138Z,15.90
2019-03-21T16:43:57.543Z,16.20
2019-03-21T16:46:28.835Z,15.75
2019-03-21T16:49:00.285Z,17.10
2019-03-21T16:51:32.701Z,17.55
2019-03-21T16:54:16.221Z,16.17
2019-03-21T16:56:37.109Z,19.25
2019-03-21T16:59:08.467Z,19.62
2019-03-21T17:01:39.873Z,20.25
2019-03-21T17:04:11.136Z,19.87
2019-03-21T17:06:42.519Z,21.65
2019-03-21T17:09:13.801Z,21.05
2019-03-21T17:11:45.102Z,23.05
2019-03-21T17:14:16.667Z,22.25
2019-03-21T17:16:47.925Z,21.75
2019-03-21T17:19:19.248Z,23.65
2019-03-21T17:21:50.710Z,23.00
2019-03-21T17:24:29.178Z,23.25
2019-03-21T17:26:54.966Z,26.68
2019-03-21T17:29:26.313Z,27.87
2019-03-21T17:31:57.755Z,28.38
2019-03-21T17:34:29.123Z,28.50
2019-03-21T17:37:00.504Z,27.45
2019-03-21T17:39:31.884Z,28.32
2019-03-21T17:42:03.627Z,27.98
2019-03-21T17:44:35.117Z,25.70
2019-03-21T17:47:06.544Z,30.82
2019-03-21T17:49:38.673Z,26.00
2019-03-21T17:52:10.031Z,23.98
2019-03-21T17:54:42.838Z,20.90
2019-03-21T17:57:14.216Z,18.85
2019-03-21T17:59:45.600Z,17.92
2019-03-21T18:02:16.950Z,18.55
2019-03-21T18:04:48.385Z,17.95
2019-03-21T18:07:19.763Z,18.12
2019-03-21T18:09:51.080Z,17.92
2019-03-21T18:12:23.641Z,18.52
2019-03-21T18:14:54.911Z,16.52
2019-03-21T18:17:26.328Z,15.70
2019-03-21T18:19:57.720Z,16.32
2019-03-21T18:22:29.057Z,17.27
2019-03-21T18:25:00.564Z,18.23
2019-03-21T18:27:31.921Z,16.77
2019-03-21T18:30:03.492Z,19.70
2019-03-21T18:32:35.876Z,20.60
2019-03-21T18:35:07.142Z,22.05
2019-03-21T18:37:38.477Z,20.90
2019-03-21T18:40:10.944Z,20.70
2019-03-21T18:42:42.330Z,18.57
2019-03-21T18:45:14.763Z,20.40
2019-03-21T18:47:46.102Z,21.77
2019-03-21T18:50:17.600Z,22.25
2019-03-21T18:52:48.927Z,19.05
2019-03-21T18:55:20.264Z,18.82
2019-03-21T18:57:53.968Z,18.02
2019-03-21T19:00:25.417Z,18.87
2019-03-21T19:02:56.731Z,25.10
2019-03-21T19:05:28.078Z,23.55
2019-03-21T19:07:59.486Z,23.55
2019-03-21T19:10:30.871Z,15.28
2019-03-21T19:13:02.322Z,16.87
2019-03-21T19:15:33.626Z,15.32
2019-03-21T19:18:04.936Z,15.30
2019-03-21T19:20:36.321Z,14.90
2019-03-21T19:23:07.648Z,16.27
2019-03-21T19:25:39.085Z,20.45
2019-03-21T19:28:10.454Z,18.52
2019-03-21T19:30:41.854Z,18.87
2019-03-21T19:33:13.114Z,18.07
2019-03-21T19:35:46.862Z,14.07
2019-03-21T19:38:17.861Z,13.00
2019-03-21T19:40:49.255Z,12.70
2019-03-21T19:43:20.802Z,10.10
2019-03-21T19:45:52.195Z,10.55
2019-03-21T19:48:24.579Z,10.03
2019-03-21T19:50:55.949Z,8.95
2019-03-21T19:53:28.983Z,8.63
2019-03-21T19:56:08.564Z,9.05
2019-03-21T19:58:33.475Z,8.30
2019-03-21T20:01:04.869Z,8.78
2019-03-21T20:03:37.473Z,8.90
2019-03-21T20:06:08.904Z,9.48
2019-03-21T20:08:40.327Z,8.65
2019-03-21T20:11:11.747Z,9.70
2019-03-21T20:13:43.066Z,9.20
2019-03-21T20:16:15.035Z,8.55
2019-03-21T20:18:46.428Z,8.83
2019-03-21T20:21:17.825Z,9.68
2019-03-21T20:23:49.266Z,10.48
2019-03-21T20:26:20.537Z,11.73
2019-03-21T20:28:52.017Z,14.98
2019-03-21T20:31:23.391Z,16.80
2019-03-21T20:33:54.684Z,21.00
2019-03-21T20:36:26.108Z,20.12
2019-03-21T20:38:57.447Z,24.35
2019-03-21T20:41:28.786Z,23.12
2019-03-21T20:44:00.115Z,12.85
2019-03-21T20:46:31.458Z,13.50
2019-03-21T20:49:02.839Z,15.25
2019-03-21T20:51:34.189Z,18.00
2019-03-21T20:54:05.461Z,18.02
2019-03-21T20:56:36.890Z,21.20
2019-03-21T20:59:08.351Z,22.32
2019-03-21T21:01:39.716Z,20.27
2019-03-21T21:04:11.542Z,20.77
2019-03-21T21:06:42.957Z,22.15
2019-03-21T21:09:14.354Z,21.77
2019-03-21T21:11:45.670Z,19.92
2019-03-21T21:14:17.009Z,17.67
2019-03-21T21:16:48.265Z,18.35
2019-03-21T21:19:19.624Z,15.70
2019-03-21T21:21:50.931Z,14.85
2019-03-21T21:24:23.473Z,14.80
2019-03-21T21:26:54.750Z,13.68
2019-03-21T21:29:26.151Z,12.82
2019-03-21T21:31:57.583Z,15.90
2019-03-21T21:34:28.976Z,15.25
2019-03-21T21:37:01.267Z,12.53
2019-03-21T21:39:32.625Z,14.78
2019-03-21T21:42:04.017Z,14.80
2019-03-21T21:44:35.334Z,13.85
2019-03-21T21:47:06.612Z,14.53
2019-03-21T21:49:37.995Z,9.68
2019-03-21T21:52:09.334Z,15.93
2019-03-21T21:54:40.655Z,16.77
2019-03-21T21:57:12.074Z,17.32
2019-03-21T21:59:43.404Z,13.80
2019-03-21T22:02:14.723Z,17.05
2019-03-21T22:04:46.020Z,16.45
2019-03-21T22:07:17.296Z,16.40
2019-03-21T22:09:48.708Z,13.68
2019-03-21T22:12:20.038Z,19.07
2019-03-21T22:14:53.480Z,18.80
2019-03-21T22:17:24.909Z,19.10
2019-03-21T22:19:56.278Z,17.42
2019-03-21T22:22:27.662Z,17.17
2019-03-21T22:24:59.176Z,16.82
2019-03-21T22:27:30.562Z,11.85
2019-03-21T22:30:04.235Z,15.80
2019-03-21T22:32:34.985Z,15.50
2019-03-21T22:35:07.394Z,17.02
2019-03-21T22:37:38.716Z,16.30
2019-03-21T22:40:14.591Z,18.42
2019-03-21T22:42:46.007Z,17.77
2019-03-21T22:45:17.633Z,20.75
2019-03-21T22:47:50.525Z,19.15
2019-03-21T22:50:21.989Z,18.75
2019-03-21T22:52:53.293Z,19.25
2019-03-21T22:55:24.698Z,20.62
2019-03-21T22:57:56.073Z,19.57
2019-03-21T23:00:35.072Z,19.65
2019-03-21T23:03:06.444Z,17.42
2019-03-21T23:05:37.793Z,19.87
2019-03-21T23:08:09.089Z,19.62
2019-03-21T23:10:40.331Z,17.70
2019-03-21T23:13:11.772Z,19.25
2019-03-21T23:15:43.043Z,18.90
2019-03-21T23:18:14.449Z,18.77
2019-03-21T23:20:45.679Z,19.12
2019-03-21T23:23:18.019Z,18.85
2019-03-21T23:25:49.350Z,20.10
2019-03-21T23:28:20.687Z,19.25
2019-03-21T23:30:52.035Z,14.05
2019-03-21T23:33:23.573Z,18.85
2019-03-21T23:35:54.998Z,19.48
2019-03-21T23:38:26.326Z,19.30
2019-03-21T23:40:58.640Z,18.65
2019-03-21T23:43:30.007Z,17.00
2019-03-21T23:46:01.379Z,18.05
2019-03-21T23:48:32.838Z,19.12
2019-03-21T23:51:04.164Z,17.98
2019-03-21T23:53:35.682Z,15.75
2019-03-21T23:56:07.039Z,13.80
2019-03-21T23:58:38.316Z,19.67
